sensor_id;sensor_type;location;lat;lon;timestamp;P1;durP1;ratioP1;P2;durP2;ratioP2
44772;SDS011;30492;52.088;5.122;2022-09-16T00:02:07;7.68;;;2.47;;
44772;SDS011;30492;52.088;5.122;2022-09-16T00:05:21;7.28;;;1.20;;
44772;SDS011;30492;52.088;5.122;2022-09-16T00:08:33;6.90;;;1.70;;
44772;SDS011;30492;52.088;5.122;2022-09-16T00:11:44;11.45;;;1.15;;
44772;SDS011;30492;52.088;5.122;2022-09-16T00:14:58;9.10;;;1.77;;
44772;SDS011;30492;52.088;5.122;2022-09-16T00:18:12;9.63;;;1.92;;
44772;SDS011;30492;52.088;5.122;2022-09-16T00:21:27;6.82;;;1.50;;
44772;SDS011;30492;52.088;5.122;2022-09-16T00:24:50;6.38;;;1.30;;
44772;SDS011;30492;52.088;5.122;2022-09-16T00:28:03;5.40;;;1.20;;
44772;SDS011;30492;52.088;5.122;2022-09-16T00:31:31;6.40;;;1.50;;
44772;SDS011;30492;52.088;5.122;2022-09-16T00:34:49;7.85;;;1.70;;
44772;SDS011;30492;52.088;5.122;2022-09-16T00:38:02;10.32;;;1.88;;
44772;SDS011;30492;52.088;5.122;2022-09-16T00:41:15;7.82;;;1.05;;
44772;SDS011;30492;52.088;5.122;2022-09-16T00:44:53;6.45;;;1.25;;
44772;SDS011;30492;52.088;5.122;2022-09-16T00:48:11;5.95;;;1.30;;
44772;SDS011;30492;52.088;5.122;2022-09-16T00:51:38;5.72;;;1.30;;
44772;SDS011;30492;52.088;5.122;2022-09-16T00:54:54;5.97;;;1.25;;
44772;SDS011;30492;52.088;5.122;2022-09-16T00:58:05;8.50;;;1.55;;
44772;SDS011;30492;52.088;5.122;2022-09-16T01:01:31;9.00;;;1.83;;
44772;SDS011;30492;52.088;5.122;2022-09-16T01:04:45;7.82;;;1.30;;
44772;SDS011;30492;52.088;5.122;2022-09-16T01:08:01;3.78;;;1.15;;
44772;SDS011;30492;52.088;5.122;2022-09-16T01:11:16;13.65;;;1.45;;
44772;SDS011;30492;52.088;5.122;2022-09-16T01:14:28;7.22;;;1.20;;
44772;SDS011;30492;52.088;5.122;2022-09-16T01:18:06;8.15;;;0.98;;
44772;SDS011;30492;52.088;5.122;2022-09-16T01:21:41;4.60;;;1.30;;
44772;SDS011;30492;52.088;5.122;2022-09-16T01:24:58;7.88;;;1.67;;
44772;SDS011;30492;52.088;5.122;2022-09-16T01:28:29;7.57;;;1.42;;
44772;SDS011;30492;52.088;5.122;2022-09-16T01:31:55;6.70;;;1.40;;
44772;SDS011;30492;52.088;5.122;2022-09-16T01:35:16;9.80;;;1.10;;
44772;SDS011;30492;52.088;5.122;2022-09-16T01:38:39;7.13;;;1.27;;
44772;SDS011;30492;52.088;5.122;2022-09-16T01:42:17;6.60;;;1.40;;
44772;SDS011;30492;52.088;5.122;2022-09-16T01:45:41;11.25;;;1.52;;
44772;SDS011;30492;52.088;5.122;2022-09-16T01:49:10;8.40;;;1.85;;
44772;SDS011;30492;52.088;5.122;2022-09-16T01:52:31;6.18;;;1.52;;
44772;SDS011;30492;52.088;5.122;2022-09-16T01:55:50;8.07;;;1.50;;
44772;SDS011;30492;52.088;5.122;2022-09-16T01:59:10;9.18;;;1.30;;
44772;SDS011;30492;52.088;5.122;2022-09-16T02:02:37;19.77;;;1.80;;
44772;SDS011;30492;52.088;5.122;2022-09-16T02:06:00;10.52;;;1.50;;
44772;SDS011;30492;52.088;5.122;2022-09-16T02:09:16;8.75;;;1.83;;
44772;SDS011;30492;52.088;5.122;2022-09-16T02:12:32;5.50;;;1.10;;
44772;SDS011;30492;52.088;5.122;2022-09-16T02:15:49;11.10;;;1.48;;
44772;SDS011;30492;52.088;5.122;2022-09-16T02:19:07;9.30;;;1.30;;
44772;SDS011;30492;52.088;5.122;2022-09-16T02:22:26;7.05;;;1.63;;
44772;SDS011;30492;52.088;5.122;2022-09-16T02:25:44;7.20;;;1.27;;
44772;SDS011;30492;52.088;5.122;2022-09-16T02:28:58;4.93;;;1.35;;
44772;SDS011;30492;52.088;5.122;2022-09-16T02:32:20;6.70;;;1.38;;
44772;SDS011;30492;52.088;5.122;2022-09-16T02:39:21;5.68;;;1.65;;
44772;SDS011;30492;52.088;5.122;2022-09-16T02:42:38;10.77;;;1.40;;
44772;SDS011;30492;52.088;5.122;2022-09-16T02:45:57;6.22;;;1.52;;
44772;SDS011;30492;52.088;5.122;2022-09-16T02:49:20;7.72;;;1.40;;
44772;SDS011;30492;52.088;5.122;2022-09-16T02:52:43;7.28;;;1.42;;
44772;SDS011;30492;52.088;5.122;2022-09-16T02:56:03;4.38;;;0.80;;
44772;SDS011;30492;52.088;5.122;2022-09-16T02:59:29;6.13;;;1.27;;
44772;SDS011;30492;52.088;5.122;2022-09-16T03:02:41;7.30;;;0.60;;
44772;SDS011;30492;52.088;5.122;2022-09-16T03:06:14;10.70;;;1.23;;
44772;SDS011;30492;52.088;5.122;2022-09-16T03:09:38;3.33;;;0.75;;
44772;SDS011;30492;52.088;5.122;2022-09-16T03:13:00;5.60;;;0.63;;
44772;SDS011;30492;52.088;5.122;2022-09-16T03:16:16;5.40;;;0.90;;
44772;SDS011;30492;52.088;5.122;2022-09-16T03:19:36;5.35;;;0.98;;
44772;SDS011;30492;52.088;5.122;2022-09-16T03:22:58;5.45;;;1.08;;
44772;SDS011;30492;52.088;5.122;2022-09-16T03:26:25;4.97;;;0.80;;
44772;SDS011;30492;52.088;5.122;2022-09-16T03:29:49;3.53;;;1.00;;
44772;SDS011;30492;52.088;5.122;2022-09-16T03:33:24;6.13;;;0.77;;
44772;SDS011;30492;52.088;5.122;2022-09-16T03:36:43;8.40;;;1.38;;
44772;SDS011;30492;52.088;5.122;2022-09-16T03:40:02;5.85;;;1.17;;
44772;SDS011;30492;52.088;5.122;2022-09-16T03:43:20;5.70;;;0.88;;
44772;SDS011;30492;52.088;5.122;2022-09-16T03:46:41;5.55;;;1.50;;
44772;SDS011;30492;52.088;5.122;2022-09-16T03:50:00;6.32;;;1.02;;
44772;SDS011;30492;52.088;5.122;2022-09-16T03:53:56;4.13;;;0.90;;
44772;SDS011;30492;52.088;5.122;2022-09-16T03:57:08;6.30;;;0.90;;
44772;SDS011;30492;52.088;5.122;2022-09-16T04:00:27;6.70;;;0.98;;
44772;SDS011;30492;52.088;5.122;2022-09-16T04:03:44;3.88;;;1.20;;
44772;SDS011;30492;52.088;5.122;2022-09-16T04:06:57;5.28;;;0.93;;
44772;SDS011;30492;52.088;5.122;2022-09-16T04:10:11;3.95;;;1.20;;
44772;SDS011;30492;52.088;5.122;2022-09-16T04:13:27;4.00;;;0.82;;
44772;SDS011;30492;52.088;5.122;2022-09-16T04:16:40;8.25;;;1.75;;
44772;SDS011;30492;52.088;5.122;2022-09-16T04:19:55;6.22;;;0.82;;
44772;SDS011;30492;52.088;5.122;2022-09-16T04:23:08;7.55;;;1.38;;
44772;SDS011;30492;52.088;5.122;2022-09-16T04:26:20;3.28;;;0.80;;
44772;SDS011;30492;52.088;5.122;2022-09-16T04:29:31;8.07;;;1.00;;
44772;SDS011;30492;52.088;5.122;2022-09-16T04:32:45;8.02;;;1.00;;
44772;SDS011;30492;52.088;5.122;2022-09-16T04:36:03;5.55;;;1.05;;
44772;SDS011;30492;52.088;5.122;2022-09-16T04:39:15;3.00;;;0.82;;
44772;SDS011;30492;52.088;5.122;2022-09-16T04:42:27;7.70;;;2.28;;
44772;SDS011;30492;52.088;5.122;2022-09-16T04:45:40;4.22;;;0.85;;
44772;SDS011;30492;52.088;5.122;2022-09-16T04:48:53;3.45;;;1.00;;
44772;SDS011;30492;52.088;5.122;2022-09-16T04:52:07;5.43;;;0.70;;
44772;SDS011;30492;52.088;5.122;2022-09-16T04:55:19;6.25;;;0.80;;
44772;SDS011;30492;52.088;5.122;2022-09-16T04:58:32;8.30;;;1.67;;
44772;SDS011;30492;52.088;5.122;2022-09-16T05:01:43;7.07;;;0.95;;
44772;SDS011;30492;52.088;5.122;2022-09-16T05:04:55;7.78;;;1.40;;
44772;SDS011;30492;52.088;5.122;2022-09-16T05:08:08;7.05;;;1.13;;
44772;SDS011;30492;52.088;5.122;2022-09-16T05:11:21;6.72;;;1.30;;
44772;SDS011;30492;52.088;5.122;2022-09-16T05:14:33;7.20;;;1.27;;
44772;SDS011;30492;52.088;5.122;2022-09-16T05:17:46;7.63;;;1.05;;
44772;SDS011;30492;52.088;5.122;2022-09-16T05:21:27;8.13;;;1.73;;
44772;SDS011;30492;52.088;5.122;2022-09-16T05:24:41;9.32;;;1.55;;
44772;SDS011;30492;52.088;5.122;2022-09-16T05:28:00;7.32;;;1.10;;
44772;SDS011;30492;52.088;5.122;2022-09-16T05:31:16;3.92;;;1.15;;
44772;SDS011;30492;52.088;5.122;2022-09-16T05:34:30;4.75;;;1.33;;
44772;SDS011;30492;52.088;5.122;2022-09-16T05:37:43;3.30;;;1.10;;
44772;SDS011;30492;52.088;5.122;2022-09-16T05:44:50;4.45;;;0.90;;
44772;SDS011;30492;52.088;5.122;2022-09-16T05:48:02;12.82;;;1.33;;
44772;SDS011;30492;52.088;5.122;2022-09-16T05:51:25;12.38;;;1.42;;
44772;SDS011;30492;52.088;5.122;2022-09-16T05:54:41;4.85;;;0.98;;
44772;SDS011;30492;52.088;5.122;2022-09-16T05:58:01;8.68;;;1.65;;
44772;SDS011;30492;52.088;5.122;2022-09-16T06:01:17;7.80;;;1.00;;
44772;SDS011;30492;52.088;5.122;2022-09-16T06:04:28;5.22;;;1.17;;
44772;SDS011;30492;52.088;5.122;2022-09-16T06:07:44;9.00;;;1.10;;
44772;SDS011;30492;52.088;5.122;2022-09-16T06:11:02;4.90;;;1.02;;
44772;SDS011;30492;52.088;5.122;2022-09-16T06:14:16;5.15;;;1.05;;
44772;SDS011;30492;52.088;5.122;2022-09-16T06:17:31;5.72;;;0.80;;
44772;SDS011;30492;52.088;5.122;2022-09-16T06:20:43;5.03;;;1.50;;
44772;SDS011;30492;52.088;5.122;2022-09-16T06:23:56;8.65;;;1.38;;
44772;SDS011;30492;52.088;5.122;2022-09-16T06:27:09;11.38;;;1.23;;
44772;SDS011;30492;52.088;5.122;2022-09-16T06:30:27;5.00;;;0.95;;
44772;SDS011;30492;52.088;5.122;2022-09-16T06:33:45;9.95;;;1.58;;
44772;SDS011;30492;52.088;5.122;2022-09-16T06:36:59;10.57;;;1.20;;
44772;SDS011;30492;52.088;5.122;2022-09-16T06:40:14;8.07;;;1.23;;
44772;SDS011;30492;52.088;5.122;2022-09-16T06:43:29;5.60;;;1.58;;
44772;SDS011;30492;52.088;5.122;2022-09-16T06:46:48;6.10;;;1.70;;
44772;SDS011;30492;52.088;5.122;2022-09-16T06:50:01;5.00;;;1.05;;
44772;SDS011;30492;52.088;5.122;2022-09-16T06:53:16;11.70;;;1.63;;
44772;SDS011;30492;52.088;5.122;2022-09-16T06:56:16;13.90;;;3.17;;
44772;SDS011;30492;52.088;5.122;2022-09-16T06:59:29;8.95;;;1.20;;
44772;SDS011;30492;52.088;5.122;2022-09-16T07:02:42;7.68;;;1.67;;
44772;SDS011;30492;52.088;5.122;2022-09-16T07:05:56;6.65;;;1.38;;
44772;SDS011;30492;52.088;5.122;2022-09-16T07:09:10;6.85;;;1.33;;
44772;SDS011;30492;52.088;5.122;2022-09-16T07:12:28;4.93;;;1.52;;
44772;SDS011;30492;52.088;5.122;2022-09-16T07:15:41;9.18;;;1.65;;
44772;SDS011;30492;52.088;5.122;2022-09-16T07:22:31;6.80;;;1.13;;
44772;SDS011;30492;52.088;5.122;2022-09-16T07:25:43;9.18;;;0.82;;
44772;SDS011;30492;52.088;5.122;2022-09-16T07:28:54;4.00;;;0.98;;
44772;SDS011;30492;52.088;5.122;2022-09-16T07:32:08;10.45;;;1.20;;
44772;SDS011;30492;52.088;5.122;2022-09-16T07:35:20;5.85;;;1.10;;
44772;SDS011;30492;52.088;5.122;2022-09-16T07:38:33;5.05;;;1.13;;
44772;SDS011;30492;52.088;5.122;2022-09-16T07:41:52;4.60;;;1.35;;
44772;SDS011;30492;52.088;5.122;2022-09-16T07:45:05;3.22;;;1.30;;
44772;SDS011;30492;52.088;5.122;2022-09-16T07:48:21;6.25;;;1.13;;
44772;SDS011;30492;52.088;5.122;2022-09-16T07:51:34;5.10;;;1.20;;
44772;SDS011;30492;52.088;5.122;2022-09-16T07:54:47;3.80;;;0.95;;
44772;SDS011;30492;52.088;5.122;2022-09-16T07:57:58;3.50;;;0.98;;
44772;SDS011;30492;52.088;5.122;2022-09-16T08:01:10;5.93;;;1.08;;
44772;SDS011;30492;52.088;5.122;2022-09-16T08:04:24;8.18;;;1.00;;
44772;SDS011;30492;52.088;5.122;2022-09-16T08:07:39;1.85;;;0.82;;
44772;SDS011;30492;52.088;5.122;2022-09-16T08:10:54;3.13;;;0.82;;
44772;SDS011;30492;52.088;5.122;2022-09-16T08:14:08;6.15;;;0.65;;
44772;SDS011;30492;52.088;5.122;2022-09-16T08:17:26;4.72;;;0.90;;
44772;SDS011;30492;52.088;5.122;2022-09-16T08:20:40;4.00;;;0.77;;
44772;SDS011;30492;52.088;5.122;2022-09-16T08:24:07;5.40;;;0.70;;
44772;SDS011;30492;52.088;5.122;2022-09-16T08:27:24;2.97;;;0.75;;
44772;SDS011;30492;52.088;5.122;2022-09-16T08:30:45;4.85;;;0.75;;
44772;SDS011;30492;52.088;5.122;2022-09-16T08:34:37;4.07;;;0.80;;
44772;SDS011;30492;52.088;5.122;2022-09-16T08:37:51;7.57;;;0.90;;
44772;SDS011;30492;52.088;5.122;2022-09-16T08:41:06;7.15;;;1.10;;
44772;SDS011;30492;52.088;5.122;2022-09-16T08:44:30;5.07;;;0.85;;
44772;SDS011;30492;52.088;5.122;2022-09-16T08:47:51;3.53;;;0.70;;
44772;SDS011;30492;52.088;5.122;2022-09-16T08:51:14;2.30;;;0.70;;
44772;SDS011;30492;52.088;5.122;2022-09-16T08:54:30;3.65;;;1.00;;
44772;SDS011;30492;52.088;5.122;2022-09-16T08:57:47;4.35;;;0.80;;
44772;SDS011;30492;52.088;5.122;2022-09-16T09:01:10;3.92;;;1.10;;
44772;SDS011;30492;52.088;5.122;2022-09-16T09:04:30;5.95;;;1.17;;
44772;SDS011;30492;52.088;5.122;2022-09-16T09:07:49;10.30;;;1.30;;
44772;SDS011;30492;52.088;5.122;2022-09-16T09:11:16;9.32;;;1.27;;
44772;SDS011;30492;52.088;5.122;2022-09-16T09:14:40;3.35;;;0.80;;
44772;SDS011;30492;52.088;5.122;2022-09-16T09:18:12;6.28;;;0.82;;
44772;SDS011;30492;52.088;5.122;2022-09-16T09:21:36;3.77;;;1.07;;
44772;SDS011;30492;52.088;5.122;2022-09-16T09:28:41;4.45;;;1.67;;
44772;SDS011;30492;52.088;5.122;2022-09-16T09:32:14;4.72;;;0.80;;
44772;SDS011;30492;52.088;5.122;2022-09-16T09:35:38;7.40;;;1.48;;
44772;SDS011;30492;52.088;5.122;2022-09-16T09:39:06;5.50;;;0.82;;
44772;SDS011;30492;52.088;5.122;2022-09-16T09:42:36;3.45;;;1.00;;
44772;SDS011;30492;52.088;5.122;2022-09-16T09:45:53;7.43;;;0.90;;
44772;SDS011;30492;52.088;5.122;2022-09-16T09:49:12;7.15;;;0.75;;
44772;SDS011;30492;52.088;5.122;2022-09-16T09:52:35;2.70;;;0.77;;
44772;SDS011;30492;52.088;5.122;2022-09-16T09:55:56;4.38;;;0.80;;
44772;SDS011;30492;52.088;5.122;2022-09-16T09:59:16;3.20;;;0.95;;
44772;SDS011;30492;52.088;5.122;2022-09-16T10:02:35;3.30;;;0.60;;
44772;SDS011;30492;52.088;5.122;2022-09-16T10:05:52;4.18;;;0.85;;
44772;SDS011;30492;52.088;5.122;2022-09-16T10:09:04;5.45;;;1.70;;
44772;SDS011;30492;52.088;5.122;2022-09-16T10:12:25;6.03;;;1.40;;
44772;SDS011;30492;52.088;5.122;2022-09-16T10:15:38;3.90;;;1.25;;
44772;SDS011;30492;52.088;5.122;2022-09-16T10:18:57;5.90;;;1.27;;
44772;SDS011;30492;52.088;5.122;2022-09-16T10:22:18;4.60;;;0.90;;
44772;SDS011;30492;52.088;5.122;2022-09-16T10:25:33;3.83;;;0.70;;
44772;SDS011;30492;52.088;5.122;2022-09-16T10:28:58;1.27;;;0.40;;
44772;SDS011;30492;52.088;5.122;2022-09-16T10:32:17;1.77;;;0.65;;
44772;SDS011;30492;52.088;5.122;2022-09-16T10:35:29;1.23;;;0.50;;
44772;SDS011;30492;52.088;5.122;2022-09-16T10:38:47;3.65;;;1.30;;
44772;SDS011;30492;52.088;5.122;2022-09-16T10:42:02;3.53;;;1.02;;
44772;SDS011;30492;52.088;5.122;2022-09-16T10:45:19;3.85;;;1.92;;
44772;SDS011;30492;52.088;5.122;2022-09-16T10:51:48;3.38;;;0.93;;
44772;SDS011;30492;52.088;5.122;2022-09-16T10:55:11;4.60;;;1.20;;
44772;SDS011;30492;52.088;5.122;2022-09-16T10:58:41;3.83;;;0.93;;
44772;SDS011;30492;52.088;5.122;2022-09-16T11:01:58;5.53;;;1.25;;
44772;SDS011;30492;52.088;5.122;2022-09-16T11:05:26;8.90;;;1.37;;
44772;SDS011;30492;52.088;5.122;2022-09-16T11:09:00;1.90;;;0.90;;
44772;SDS011;30492;52.088;5.122;2022-09-16T11:12:27;7.95;;;1.25;;
44772;SDS011;30492;52.088;5.122;2022-09-16T11:16:03;3.35;;;0.90;;
44772;SDS011;30492;52.088;5.122;2022-09-16T11:19:24;5.32;;;1.05;;
44772;SDS011;30492;52.088;5.122;2022-09-16T11:22:46;6.60;;;1.42;;
44772;SDS011;30492;52.088;5.122;2022-09-16T11:26:06;6.68;;;1.77;;
44772;SDS011;30492;52.088;5.122;2022-09-16T11:29:41;7.90;;;1.20;;
44772;SDS011;30492;52.088;5.122;2022-09-16T11:33:23;5.28;;;1.17;;
44772;SDS011;30492;52.088;5.122;2022-09-16T11:36:43;5.07;;;1.55;;
44772;SDS011;30492;52.088;5.122;2022-09-16T11:40:11;6.88;;;1.52;;
44772;SDS011;30492;52.088;5.122;2022-09-16T11:43:39;6.35;;;1.73;;
44772;SDS011;30492;52.088;5.122;2022-09-16T11:50:58;11.50;;;1.92;;
44772;SDS011;30492;52.088;5.122;2022-09-16T11:54:20;16.30;;;3.45;;
44772;SDS011;30492;52.088;5.122;2022-09-16T11:57:51;7.53;;;2.00;;
44772;SDS011;30492;52.088;5.122;2022-09-16T12:01:08;5.38;;;1.45;;
44772;SDS011;30492;52.088;5.122;2022-09-16T12:04:40;7.90;;;1.63;;
44772;SDS011;30492;52.088;5.122;2022-09-16T12:08:00;5.68;;;1.23;;
44772;SDS011;30492;52.088;5.122;2022-09-16T12:11:22;6.10;;;1.08;;
44772;SDS011;30492;52.088;5.122;2022-09-16T12:14:42;6.85;;;1.00;;
44772;SDS011;30492;52.088;5.122;2022-09-16T12:18:00;7.15;;;1.27;;
44772;SDS011;30492;52.088;5.122;2022-09-16T12:21:21;7.38;;;1.60;;
44772;SDS011;30492;52.088;5.122;2022-09-16T12:24:40;4.30;;;1.17;;
44772;SDS011;30492;52.088;5.122;2022-09-16T12:27:56;11.80;;;1.45;;
44772;SDS011;30492;52.088;5.122;2022-09-16T12:31:12;7.88;;;1.88;;
44772;SDS011;30492;52.088;5.122;2022-09-16T12:34:30;7.70;;;1.48;;
44772;SDS011;30492;52.088;5.122;2022-09-16T12:37:48;6.80;;;1.10;;
44772;SDS011;30492;52.088;5.122;2022-09-16T12:41:09;8.63;;;2.55;;
44772;SDS011;30492;52.088;5.122;2022-09-16T12:44:38;7.68;;;2.00;;
44772;SDS011;30492;52.088;5.122;2022-09-16T12:48:05;11.43;;;2.45;;
44772;SDS011;30492;52.088;5.122;2022-09-16T12:51:40;11.45;;;2.92;;
44772;SDS011;30492;52.088;5.122;2022-09-16T12:58:50;11.65;;;2.92;;
44772;SDS011;30492;52.088;5.122;2022-09-16T13:06:13;15.75;;;2.20;;
44772;SDS011;30492;52.088;5.122;2022-09-16T13:09:33;13.45;;;1.90;;
44772;SDS011;30492;52.088;5.122;2022-09-16T13:12:55;14.55;;;2.53;;
44772;SDS011;30492;52.088;5.122;2022-09-16T13:16:08;11.43;;;2.88;;
44772;SDS011;30492;52.088;5.122;2022-09-16T13:19:48;16.40;;;2.13;;
44772;SDS011;30492;52.088;5.122;2022-09-16T13:23:04;10.13;;;1.73;;
44772;SDS011;30492;52.088;5.122;2022-09-16T13:26:22;15.88;;;2.40;;
44772;SDS011;30492;52.088;5.122;2022-09-16T13:29:41;12.23;;;2.72;;
44772;SDS011;30492;52.088;5.122;2022-09-16T13:32:58;8.60;;;2.15;;
44772;SDS011;30492;52.088;5.122;2022-09-16T13:36:30;15.93;;;3.97;;
44772;SDS011;30492;52.088;5.122;2022-09-16T13:39:43;14.30;;;2.00;;
44772;SDS011;30492;52.088;5.122;2022-09-16T13:43:02;16.55;;;2.45;;
44772;SDS011;30492;52.088;5.122;2022-09-16T13:46:34;19.35;;;2.95;;
44772;SDS011;30492;52.088;5.122;2022-09-16T13:49:48;14.68;;;2.15;;
44772;SDS011;30492;52.088;5.122;2022-09-16T13:53:09;11.32;;;2.58;;
44772;SDS011;30492;52.088;5.122;2022-09-16T13:56:36;7.88;;;1.88;;
44772;SDS011;30492;52.088;5.122;2022-09-16T14:00:14;12.77;;;2.78;;
44772;SDS011;30492;52.088;5.122;2022-09-16T14:03:43;15.88;;;1.85;;
44772;SDS011;30492;52.088;5.122;2022-09-16T14:07:37;11.57;;;2.35;;
44772;SDS011;30492;52.088;5.122;2022-09-16T14:10:55;11.32;;;2.08;;
44772;SDS011;30492;52.088;5.122;2022-09-16T14:14:24;13.75;;;2.25;;
44772;SDS011;30492;52.088;5.122;2022-09-16T14:21:23;8.57;;;1.92;;
44772;SDS011;30492;52.088;5.122;2022-09-16T14:24:37;8.90;;;1.77;;
44772;SDS011;30492;52.088;5.122;2022-09-16T14:27:51;10.68;;;2.22;;
44772;SDS011;30492;52.088;5.122;2022-09-16T14:31:05;8.52;;;1.52;;
44772;SDS011;30492;52.088;5.122;2022-09-16T14:34:20;5.63;;;1.10;;
44772;SDS011;30492;52.088;5.122;2022-09-16T14:37:44;12.80;;;1.73;;
44772;SDS011;30492;52.088;5.122;2022-09-16T14:40:58;9.85;;;3.10;;
44772;SDS011;30492;52.088;5.122;2022-09-16T14:44:26;5.68;;;1.90;;
44772;SDS011;30492;52.088;5.122;2022-09-16T14:47:46;10.50;;;1.95;;
44772;SDS011;30492;52.088;5.122;2022-09-16T14:51:02;8.77;;;2.30;;
44772;SDS011;30492;52.088;5.122;2022-09-16T14:54:23;7.95;;;1.92;;
44772;SDS011;30492;52.088;5.122;2022-09-16T14:57:39;15.45;;;2.40;;
44772;SDS011;30492;52.088;5.122;2022-09-16T15:04:36;15.80;;;2.97;;
44772;SDS011;30492;52.088;5.122;2022-09-16T15:08:01;16.73;;;3.63;;
44772;SDS011;30492;52.088;5.122;2022-09-16T15:11:29;20.17;;;2.63;;
44772;SDS011;30492;52.088;5.122;2022-09-16T15:14:45;9.13;;;2.53;;
44772;SDS011;30492;52.088;5.122;2022-09-16T15:17:58;13.77;;;3.45;;
44772;SDS011;30492;52.088;5.122;2022-09-16T15:21:15;13.65;;;2.80;;
44772;SDS011;30492;52.088;5.122;2022-09-16T15:24:30;17.15;;;2.10;;
44772;SDS011;30492;52.088;5.122;2022-09-16T15:27:51;9.77;;;2.55;;
44772;SDS011;30492;52.088;5.122;2022-09-16T15:31:25;9.85;;;1.85;;
44772;SDS011;30492;52.088;5.122;2022-09-16T15:34:42;12.30;;;2.17;;
44772;SDS011;30492;52.088;5.122;2022-09-16T15:37:55;11.55;;;1.90;;
44772;SDS011;30492;52.088;5.122;2022-09-16T15:41:23;9.27;;;2.22;;
44772;SDS011;30492;52.088;5.122;2022-09-16T15:44:36;9.07;;;2.00;;
44772;SDS011;30492;52.088;5.122;2022-09-16T15:47:56;10.75;;;1.55;;
44772;SDS011;30492;52.088;5.122;2022-09-16T15:51:20;10.75;;;1.90;;
44772;SDS011;30492;52.088;5.122;2022-09-16T15:54:44;12.63;;;2.03;;
44772;SDS011;30492;52.088;5.122;2022-09-16T15:58:00;15.90;;;2.53;;
44772;SDS011;30492;52.088;5.122;2022-09-16T16:01:33;7.80;;;1.77;;
44772;SDS011;30492;52.088;5.122;2022-09-16T16:04:49;8.65;;;1.88;;
44772;SDS011;30492;52.088;5.122;2022-09-16T16:08:02;9.27;;;2.13;;
44772;SDS011;30492;52.088;5.122;2022-09-16T16:11:20;13.82;;;2.80;;
44772;SDS011;30492;52.088;5.122;2022-09-16T16:14:33;14.95;;;2.75;;
44772;SDS011;30492;52.088;5.122;2022-09-16T16:17:47;17.20;;;2.35;;
44772;SDS011;30492;52.088;5.122;2022-09-16T16:21:03;9.70;;;1.58;;
44772;SDS011;30492;52.088;5.122;2022-09-16T16:24:16;13.52;;;3.53;;
44772;SDS011;30492;52.088;5.122;2022-09-16T16:27:28;13.98;;;2.80;;
44772;SDS011;30492;52.088;5.122;2022-09-16T16:30:40;14.73;;;4.70;;
44772;SDS011;30492;52.088;5.122;2022-09-16T16:34:01;15.95;;;3.45;;
44772;SDS011;30492;52.088;5.122;2022-09-16T16:37:15;17.75;;;3.47;;
44772;SDS011;30492;52.088;5.122;2022-09-16T16:40:28;11.20;;;2.58;;
44772;SDS011;30492;52.088;5.122;2022-09-16T16:43:42;14.93;;;3.30;;
44772;SDS011;30492;52.088;5.122;2022-09-16T16:46:54;9.32;;;2.28;;
44772;SDS011;30492;52.088;5.122;2022-09-16T16:50:07;10.80;;;2.92;;
44772;SDS011;30492;52.088;5.122;2022-09-16T16:53:20;9.60;;;3.10;;
44772;SDS011;30492;52.088;5.122;2022-09-16T16:56:32;13.50;;;2.75;;
44772;SDS011;30492;52.088;5.122;2022-09-16T17:03:27;11.65;;;3.35;;
44772;SDS011;30492;52.088;5.122;2022-09-16T17:06:41;14.20;;;4.40;;
44772;SDS011;30492;52.088;5.122;2022-09-16T17:09:53;17.73;;;2.35;;
44772;SDS011;30492;52.088;5.122;2022-09-16T17:13:07;9.25;;;2.15;;
44772;SDS011;30492;52.088;5.122;2022-09-16T17:16:19;18.67;;;2.78;;
44772;SDS011;30492;52.088;5.122;2022-09-16T17:19:33;12.48;;;2.38;;
44772;SDS011;30492;52.088;5.122;2022-09-16T17:26:08;16.38;;;3.22;;
44772;SDS011;30492;52.088;5.122;2022-09-16T17:29:20;15.13;;;3.10;;
44772;SDS011;30492;52.088;5.122;2022-09-16T17:32:32;14.45;;;2.72;;
44772;SDS011;30492;52.088;5.122;2022-09-16T17:35:47;12.57;;;2.70;;
44772;SDS011;30492;52.088;5.122;2022-09-16T17:39:11;13.15;;;3.33;;
44772;SDS011;30492;52.088;5.122;2022-09-16T17:42:25;14.68;;;3.25;;
44772;SDS011;30492;52.088;5.122;2022-09-16T17:45:45;14.35;;;3.35;;
44772;SDS011;30492;52.088;5.122;2022-09-16T17:48:58;12.27;;;3.45;;
44772;SDS011;30492;52.088;5.122;2022-09-16T17:52:12;17.98;;;4.68;;
44772;SDS011;30492;52.088;5.122;2022-09-16T17:55:33;13.88;;;4.75;;
44772;SDS011;30492;52.088;5.122;2022-09-16T17:58:46;22.20;;;4.97;;
44772;SDS011;30492;52.088;5.122;2022-09-16T18:02:04;16.30;;;4.13;;
44772;SDS011;30492;52.088;5.122;2022-09-16T18:05:18;12.77;;;3.67;;
44772;SDS011;30492;52.088;5.122;2022-09-16T18:08:30;14.32;;;3.55;;
44772;SDS011;30492;52.088;5.122;2022-09-16T18:11:43;18.60;;;3.88;;
44772;SDS011;30492;52.088;5.122;2022-09-16T18:14:58;21.50;;;3.78;;
44772;SDS011;30492;52.088;5.122;2022-09-16T18:18:13;21.95;;;4.07;;
44772;SDS011;30492;52.088;5.122;2022-09-16T18:21:30;12.27;;;2.25;;
44772;SDS011;30492;52.088;5.122;2022-09-16T18:24:49;11.82;;;2.63;;
44772;SDS011;30492;52.088;5.122;2022-09-16T18:28:05;7.88;;;1.55;;
44772;SDS011;30492;52.088;5.122;2022-09-16T18:31:26;8.18;;;1.80;;
44772;SDS011;30492;52.088;5.122;2022-09-16T18:34:41;8.32;;;2.47;;
44772;SDS011;30492;52.088;5.122;2022-09-16T18:37:57;16.15;;;2.58;;
44772;SDS011;30492;52.088;5.122;2022-09-16T18:41:12;18.35;;;2.85;;
44772;SDS011;30492;52.088;5.122;2022-09-16T18:44:32;16.23;;;3.28;;
44772;SDS011;30492;52.088;5.122;2022-09-16T18:47:44;11.95;;;2.90;;
44772;SDS011;30492;52.088;5.122;2022-09-16T18:50:57;14.43;;;2.95;;
44772;SDS011;30492;52.088;5.122;2022-09-16T18:54:10;11.43;;;2.72;;
44772;SDS011;30492;52.088;5.122;2022-09-16T18:57:33;13.02;;;2.88;;
44772;SDS011;30492;52.088;5.122;2022-09-16T19:00:55;13.05;;;2.42;;
44772;SDS011;30492;52.088;5.122;2022-09-16T19:04:21;12.68;;;3.80;;
44772;SDS011;30492;52.088;5.122;2022-09-16T19:07:35;13.18;;;3.60;;
44772;SDS011;30492;52.088;5.122;2022-09-16T19:10:48;11.68;;;3.03;;
44772;SDS011;30492;52.088;5.122;2022-09-16T19:14:01;11.93;;;2.83;;
44772;SDS011;30492;52.088;5.122;2022-09-16T19:17:16;13.32;;;2.42;;
44772;SDS011;30492;52.088;5.122;2022-09-16T19:20:28;15.18;;;3.45;;
44772;SDS011;30492;52.088;5.122;2022-09-16T19:23:41;15.90;;;2.95;;
44772;SDS011;30492;52.088;5.122;2022-09-16T19:26:53;14.68;;;3.28;;
44772;SDS011;30492;52.088;5.122;2022-09-16T19:30:05;11.07;;;3.58;;
44772;SDS011;30492;52.088;5.122;2022-09-16T19:33:18;17.17;;;3.67;;
44772;SDS011;30492;52.088;5.122;2022-09-16T19:36:31;15.43;;;2.45;;
44772;SDS011;30492;52.088;5.122;2022-09-16T19:39:55;16.83;;;3.47;;
44772;SDS011;30492;52.088;5.122;2022-09-16T19:43:09;16.25;;;3.13;;
44772;SDS011;30492;52.088;5.122;2022-09-16T19:46:23;13.90;;;3.00;;
44772;SDS011;30492;52.088;5.122;2022-09-16T19:49:46;13.45;;;2.83;;
44772;SDS011;30492;52.088;5.122;2022-09-16T19:53:02;13.32;;;2.40;;
44772;SDS011;30492;52.088;5.122;2022-09-16T19:56:15;9.98;;;1.80;;
44772;SDS011;30492;52.088;5.122;2022-09-16T19:59:33;10.80;;;2.75;;
44772;SDS011;30492;52.088;5.122;2022-09-16T20:02:51;6.45;;;2.00;;
44772;SDS011;30492;52.088;5.122;2022-09-16T20:06:12;11.95;;;2.50;;
44772;SDS011;30492;52.088;5.122;2022-09-16T20:09:29;8.13;;;1.58;;
44772;SDS011;30492;52.088;5.122;2022-09-16T20:12:42;8.40;;;1.63;;
44772;SDS011;30492;52.088;5.122;2022-09-16T20:15:55;7.20;;;2.05;;
44772;SDS011;30492;52.088;5.122;2022-09-16T20:19:10;17.77;;;2.20;;
44772;SDS011;30492;52.088;5.122;2022-09-16T20:22:30;9.40;;;2.50;;
44772;SDS011;30492;52.088;5.122;2022-09-16T20:25:56;8.02;;;2.40;;
44772;SDS011;30492;52.088;5.122;2022-09-16T20:29:37;13.50;;;2.60;;
44772;SDS011;30492;52.088;5.122;2022-09-16T20:32:53;16.60;;;2.33;;
44772;SDS011;30492;52.088;5.122;2022-09-16T20:36:12;9.00;;;1.83;;